sensor_id;sensor_type;location;lat;lon;timestamp;temperature;humidity
2721;DHT22;1368;49.484;11.112;2023-08-06T00:01:48;18.00;99.90
2721;DHT22;1368;49.484;11.112;2023-08-06T00:04:14;17.70;99.90
2721;DHT22;1368;49.484;11.112;2023-08-06T00:06:40;17.30;99.90
2721;DHT22;1368;49.484;11.112;2023-08-06T00:09:05;17.30;99.90
2721;DHT22;1368;49.484;11.112;2023-08-06T00:11:31;17.30;99.90
2721;DHT22;1368;49.484;11.112;2023-08-06T00:13:56;17.60;99.90
2721;DHT22;1368;49.484;11.112;2023-08-06T00:16:22;17.10;99.90
2721;DHT22;1368;49.484;11.112;2023-08-06T00:18:47;17.00;99.90
2721;DHT22;1368;49.484;11.112;2023-08-06T00:21:13;16.80;99.90
2721;DHT22;1368;49.484;11.112;2023-08-06T00:23:40;16.80;99.90
2721;DHT22;1368;49.484;11.112;2023-08-06T00:26:06;16.80;99.90
2721;DHT22;1368;49.484;11.112;2023-08-06T00:28:31;17.30;99.90
2721;DHT22;1368;49.484;11.112;2023-08-06T00:30:57;16.80;99.90
2721;DHT22;1368;49.484;11.112;2023-08-06T00:33:23;16.90;99.90
2721;DHT22;1368;49.484;11.112;2023-08-06T00:35:48;17.00;99.90
2721;DHT22;1368;49.484;11.112;2023-08-06T00:38:14;17.00;99.90
2721;DHT22;1368;49.484;11.112;2023-08-06T00:40:40;17.20;99.90
2721;DHT22;1368;49.484;11.112;2023-08-06T00:43:05;17.80;99.90
2721;DHT22;1368;49.484;11.112;2023-08-06T00:45:34;17.40;99.90
2721;DHT22;1368;49.484;11.112;2023-08-06T00:48:00;17.80;99.90
2721;DHT22;1368;49.484;11.112;2023-08-06T00:50:26;17.40;99.90
2721;DHT22;1368;49.484;11.112;2023-08-06T00:52:52;17.40;99.90
2721;DHT22;1368;49.484;11.112;2023-08-06T00:55:18;17.10;99.90
2721;DHT22;1368;49.484;11.112;2023-08-06T00:57:43;17.10;99.90
2721;DHT22;1368;49.484;11.112;2023-08-06T01:00:09;17.10;99.90
2721;DHT22;1368;49.484;11.112;2023-08-06T01:02:35;17.20;99.90
2721;DHT22;1368;49.484;11.112;2023-08-06T01:05:01;17.20;99.90
2721;DHT22;1368;49.484;11.112;2023-08-06T01:13:07;17.50;99.90
2721;DHT22;1368;49.484;11.112;2023-08-06T01:15:55;17.50;99.90
2721;DHT22;1368;49.484;11.112;2023-08-06T01:18:23;17.60;99.90
2721;DHT22;1368;49.484;11.112;2023-08-06T01:20:49;17.70;99.90
2721;DHT22;1368;49.484;11.112;2023-08-06T01:23:18;17.60;99.90
2721;DHT22;1368;49.484;11.112;2023-08-06T01:31:35;17.50;99.90
2721;DHT22;1368;49.484;11.112;2023-08-06T01:34:03;17.50;99.90
2721;DHT22;1368;49.484;11.112;2023-08-06T01:36:30;17.50;99.90
2721;DHT22;1368;49.484;11.112;2023-08-06T01:38:56;17.50;99.90
2721;DHT22;1368;49.484;11.112;2023-08-06T01:41:22;17.50;99.90
2721;DHT22;1368;49.484;11.112;2023-08-06T01:43:48;17.50;99.90
2721;DHT22;1368;49.484;11.112;2023-08-06T01:46:13;17.80;99.90
2721;DHT22;1368;49.484;11.112;2023-08-06T01:48:39;17.60;99.90
2721;DHT22;1368;49.484;11.112;2023-08-06T01:51:05;17.40;99.90
2721;DHT22;1368;49.484;11.112;2023-08-06T01:53:34;17.50;99.90
2721;DHT22;1368;49.484;11.112;2023-08-06T01:55:59;17.30;99.90
2721;DHT22;1368;49.484;11.112;2023-08-06T01:58:25;17.40;99.90
2721;DHT22;1368;49.484;11.112;2023-08-06T02:00:50;17.40;99.90
2721;DHT22;1368;49.484;11.112;2023-08-06T02:03:16;17.50;99.90
2721;DHT22;1368;49.484;11.112;2023-08-06T02:05:41;17.90;99.90
2721;DHT22;1368;49.484;11.112;2023-08-06T02:08:07;17.40;99.90
2721;DHT22;1368;49.484;11.112;2023-08-06T02:10:33;17.50;99.90
2721;DHT22;1368;49.484;11.112;2023-08-06T02:12:58;17.90;99.90
2721;DHT22;1368;49.484;11.112;2023-08-06T02:15:24;17.50;99.90
2721;DHT22;1368;49.484;11.112;2023-08-06T02:17:50;17.50;99.90
2721;DHT22;1368;49.484;11.112;2023-08-06T02:20:15;17.40;99.90
2721;DHT22;1368;49.484;11.112;2023-08-06T02:22:41;17.90;99.90
2721;DHT22;1368;49.484;11.112;2023-08-06T02:25:07;17.40;99.90
2721;DHT22;1368;49.484;11.112;2023-08-06T02:27:32;17.40;99.90
2721;DHT22;1368;49.484;11.112;2023-08-06T02:29:58;17.40;99.90
2721;DHT22;1368;49.484;11.112;2023-08-06T02:32:24;17.30;99.90
2721;DHT22;1368;49.484;11.112;2023-08-06T02:34:49;17.90;99.90
2721;DHT22;1368;49.484;11.112;2023-08-06T02:37:15;17.30;99.90
2721;DHT22;1368;49.484;11.112;2023-08-06T02:39:40;17.40;99.90
2721;DHT22;1368;49.484;11.112;2023-08-06T02:42:08;17.40;99.90
2721;DHT22;1368;49.484;11.112;2023-08-06T02:44:34;17.90;99.90
2721;DHT22;1368;49.484;11.112;2023-08-06T02:47:00;17.40;99.90
2721;DHT22;1368;49.484;11.112;2023-08-06T02:49:26;17.50;99.90
2721;DHT22;1368;49.484;11.112;2023-08-06T02:51:51;17.80;99.90
2721;DHT22;1368;49.484;11.112;2023-08-06T02:54:18;17.20;99.90
2721;DHT22;1368;49.484;11.112;2023-08-06T02:56:44;17.70;99.90
2721;DHT22;1368;49.484;11.112;2023-08-06T02:59:10;17.10;99.90
2721;DHT22;1368;49.484;11.112;2023-08-06T03:01:36;17.10;99.90
2721;DHT22;1368;49.484;11.112;2023-08-06T03:04:02;17.00;99.90
2721;DHT22;1368;49.484;11.112;2023-08-06T03:06:27;16.90;99.90
2721;DHT22;1368;49.484;11.112;2023-08-06T03:08:53;17.00;99.90
2721;DHT22;1368;49.484;11.112;2023-08-06T03:11:18;17.50;99.90
2721;DHT22;1368;49.484;11.112;2023-08-06T03:13:44;16.90;99.90
2721;DHT22;1368;49.484;11.112;2023-08-06T03:16:09;17.10;99.90
2721;DHT22;1368;49.484;11.112;2023-08-06T03:18:35;17.00;99.90
2721;DHT22;1368;49.484;11.112;2023-08-06T03:21:00;16.70;99.90
2721;DHT22;1368;49.484;11.112;2023-08-06T03:23:26;16.60;99.90
2721;DHT22;1368;49.484;11.112;2023-08-06T03:25:52;17.20;99.90
2721;DHT22;1368;49.484;11.112;2023-08-06T03:28:17;16.70;99.90
2721;DHT22;1368;49.484;11.112;2023-08-06T03:30:43;16.80;99.90
2721;DHT22;1368;49.484;11.112;2023-08-06T03:33:08;16.80;99.90
2721;DHT22;1368;49.484;11.112;2023-08-06T03:35:34;16.90;99.90
2721;DHT22;1368;49.484;11.112;2023-08-06T03:37:59;17.10;99.90
2721;DHT22;1368;49.484;11.112;2023-08-06T03:40:25;17.00;99.90
2721;DHT22;1368;49.484;11.112;2023-08-06T03:42:50;17.00;99.90
2721;DHT22;1368;49.484;11.112;2023-08-06T03:45:16;17.50;99.90
2721;DHT22;1368;49.484;11.112;2023-08-06T03:47:42;17.00;99.90
2721;DHT22;1368;49.484;11.112;2023-08-06T03:50:07;16.90;99.90
2721;DHT22;1368;49.484;11.112;2023-08-06T03:52:33;16.80;99.90
2721;DHT22;1368;49.484;11.112;2023-08-06T03:54:58;16.80;99.90
2721;DHT22;1368;49.484;11.112;2023-08-06T03:57:24;16.80;99.90
2721;DHT22;1368;49.484;11.112;2023-08-06T03:59:49;17.00;99.90
2721;DHT22;1368;49.484;11.112;2023-08-06T04:02:15;16.60;99.90
2721;DHT22;1368;49.484;11.112;2023-08-06T04:04:41;16.60;99.90
2721;DHT22;1368;49.484;11.112;2023-08-06T04:07:06;16.50;99.90
2721;DHT22;1368;49.484;11.112;2023-08-06T04:09:32;16.50;99.90
2721;DHT22;1368;49.484;11.112;2023-08-06T04:11:57;16.40;99.90
2721;DHT22;1368;49.484;11.112;2023-08-06T04:14:25;16.70;99.90
2721;DHT22;1368;49.484;11.112;2023-08-06T04:16:51;16.30;99.90
2721;DHT22;1368;49.484;11.112;2023-08-06T04:19:16;16.30;99.90
2721;DHT22;1368;49.484;11.112;2023-08-06T04:21:42;16.20;99.90
2721;DHT22;1368;49.484;11.112;2023-08-06T04:24:07;16.30;99.90
2721;DHT22;1368;49.484;11.112;2023-08-06T04:26:33;16.30;99.90
2721;DHT22;1368;49.484;11.112;2023-08-06T04:28:58;16.40;99.90
2721;DHT22;1368;49.484;11.112;2023-08-06T04:31:24;17.00;99.90
2721;DHT22;1368;49.484;11.112;2023-08-06T04:33:50;17.20;99.90
2721;DHT22;1368;49.484;11.112;2023-08-06T04:36:15;16.50;99.90
2721;DHT22;1368;49.484;11.112;2023-08-06T04:38:41;16.60;99.90
2721;DHT22;1368;49.484;11.112;2023-08-06T04:41:10;16.70;99.90
2721;DHT22;1368;49.484;11.112;2023-08-06T04:43:36;16.70;99.90
2721;DHT22;1368;49.484;11.112;2023-08-06T04:46:01;16.60;99.90
2721;DHT22;1368;49.484;11.112;2023-08-06T04:48:27;16.60;99.90
2721;DHT22;1368;49.484;11.112;2023-08-06T04:50:52;16.30;99.90
2721;DHT22;1368;49.484;11.112;2023-08-06T04:53:18;16.20;99.90
2721;DHT22;1368;49.484;11.112;2023-08-06T04:55:44;16.20;99.90
2721;DHT22;1368;49.484;11.112;2023-08-06T04:58:10;16.10;99.90
2721;DHT22;1368;49.484;11.112;2023-08-06T05:00:36;16.00;99.90
2721;DHT22;1368;49.484;11.112;2023-08-06T05:03:01;16.20;99.90
2721;DHT22;1368;49.484;11.112;2023-08-06T05:05:28;16.20;99.90
2721;DHT22;1368;49.484;11.112;2023-08-06T05:07:54;16.20;99.90
2721;DHT22;1368;49.484;11.112;2023-08-06T05:10:20;16.20;99.90
2721;DHT22;1368;49.484;11.112;2023-08-06T05:12:45;16.30;99.90
2721;DHT22;1368;49.484;11.112;2023-08-06T05:15:11;16.60;99.90
2721;DHT22;1368;49.484;11.112;2023-08-06T05:17:36;16.50;99.90
2721;DHT22;1368;49.484;11.112;2023-08-06T05:20:03;16.80;99.90
2721;DHT22;1368;49.484;11.112;2023-08-06T05:22:29;17.60;99.90
2721;DHT22;1368;49.484;11.112;2023-08-06T05:24:54;18.20;99.90
2721;DHT22;1368;49.484;11.112;2023-08-06T05:27:20;18.70;99.90
2721;DHT22;1368;49.484;11.112;2023-08-06T05:29:45;18.90;99.90
2721;DHT22;1368;49.484;11.112;2023-08-06T05:32:11;18.90;99.90
2721;DHT22;1368;49.484;11.112;2023-08-06T05:34:37;19.20;99.90
2721;DHT22;1368;49.484;11.112;2023-08-06T05:37:03;18.80;99.90
2721;DHT22;1368;49.484;11.112;2023-08-06T05:39:29;18.80;99.90
2721;DHT22;1368;49.484;11.112;2023-08-06T05:41:54;19.70;99.90
2721;DHT22;1368;49.484;11.112;2023-08-06T05:44:21;20.60;99.90
2721;DHT22;1368;49.484;11.112;2023-08-06T05:46:46;20.60;99.90
2721;DHT22;1368;49.484;11.112;2023-08-06T05:49:12;20.70;99.90
2721;DHT22;1368;49.484;11.112;2023-08-06T05:51:39;20.70;99.90
2721;DHT22;1368;49.484;11.112;2023-08-06T05:54:04;20.70;99.90
2721;DHT22;1368;49.484;11.112;2023-08-06T05:56:30;20.70;99.90
2721;DHT22;1368;49.484;11.112;2023-08-06T05:58:55;20.60;99.90
2721;DHT22;1368;49.484;11.112;2023-08-06T06:01:21;20.10;99.90
2721;DHT22;1368;49.484;11.112;2023-08-06T06:03:46;20.50;99.90
2721;DHT22;1368;49.484;11.112;2023-08-06T06:06:12;21.20;99.90
2721;DHT22;1368;49.484;11.112;2023-08-06T06:08:38;22.00;99.90
2721;DHT22;1368;49.484;11.112;2023-08-06T06:11:03;22.80;99.90
2721;DHT22;1368;49.484;11.112;2023-08-06T06:13:29;23.20;99.90
2721;DHT22;1368;49.484;11.112;2023-08-06T06:15:55;23.10;99.90
2721;DHT22;1368;49.484;11.112;2023-08-06T06:18:24;22.10;99.90
2721;DHT22;1368;49.484;11.112;2023-08-06T06:20:49;22.10;99.90
2721;DHT22;1368;49.484;11.112;2023-08-06T06:23:15;22.80;99.90
2721;DHT22;1368;49.484;11.112;2023-08-06T06:25:47;22.70;99.90
2721;DHT22;1368;49.484;11.112;2023-08-06T06:28:13;23.50;99.90
2721;DHT22;1368;49.484;11.112;2023-08-06T06:30:38;23.80;99.90
2721;DHT22;1368;49.484;11.112;2023-08-06T06:33:04;23.70;99.90
2721;DHT22;1368;49.484;11.112;2023-08-06T06:35:30;24.20;99.90
2721;DHT22;1368;49.484;11.112;2023-08-06T06:37:55;23.50;99.90
2721;DHT22;1368;49.484;11.112;2023-08-06T06:40:21;23.70;99.90
2721;DHT22;1368;49.484;11.112;2023-08-06T06:42:46;22.70;99.90
2721;DHT22;1368;49.484;11.112;2023-08-06T06:45:12;22.40;99.90
2721;DHT22;1368;49.484;11.112;2023-08-06T06:47:37;22.70;99.90
2721;DHT22;1368;49.484;11.112;2023-08-06T06:50:03;22.00;99.90
2721;DHT22;1368;49.484;11.112;2023-08-06T06:52:29;21.60;99.90
2721;DHT22;1368;49.484;11.112;2023-08-06T06:54:55;21.20;99.90
2721;DHT22;1368;49.484;11.112;2023-08-06T06:57:20;20.90;99.90
2721;DHT22;1368;49.484;11.112;2023-08-06T06:59:46;20.60;99.90
2721;DHT22;1368;49.484;11.112;2023-08-06T07:02:11;20.50;99.90
2721;DHT22;1368;49.484;11.112;2023-08-06T07:04:37;20.40;99.90
2721;DHT22;1368;49.484;11.112;2023-08-06T07:07:03;20.40;99.90
2721;DHT22;1368;49.484;11.112;2023-08-06T07:09:28;20.30;99.90
2721;DHT22;1368;49.484;11.112;2023-08-06T07:11:54;20.20;99.90
2721;DHT22;1368;49.484;11.112;2023-08-06T07:14:19;20.60;99.90
2721;DHT22;1368;49.484;11.112;2023-08-06T07:16:45;20.30;99.90
2721;DHT22;1368;49.484;11.112;2023-08-06T07:19:11;20.80;99.90
2721;DHT22;1368;49.484;11.112;2023-08-06T07:21:36;20.50;99.90
2721;DHT22;1368;49.484;11.112;2023-08-06T07:24:02;20.30;99.90
2721;DHT22;1368;49.484;11.112;2023-08-06T07:26:27;20.20;99.90
2721;DHT22;1368;49.484;11.112;2023-08-06T07:28:53;20.50;99.90
2721;DHT22;1368;49.484;11.112;2023-08-06T07:31:18;20.30;99.90
2721;DHT22;1368;49.484;11.112;2023-08-06T07:33:44;20.30;99.90
2721;DHT22;1368;49.484;11.112;2023-08-06T07:36:14;20.40;99.90
2721;DHT22;1368;49.484;11.112;2023-08-06T07:38:40;20.50;99.90
2721;DHT22;1368;49.484;11.112;2023-08-06T07:41:06;20.70;99.90
2721;DHT22;1368;49.484;11.112;2023-08-06T07:43:32;20.80;99.90
2721;DHT22;1368;49.484;11.112;2023-08-06T07:45:58;20.50;99.90
2721;DHT22;1368;49.484;11.112;2023-08-06T07:48:25;21.20;99.90
2721;DHT22;1368;49.484;11.112;2023-08-06T07:50:52;21.00;99.90
2721;DHT22;1368;49.484;11.112;2023-08-06T07:53:20;21.50;99.90
2721;DHT22;1368;49.484;11.112;2023-08-06T07:55:51;21.80;99.90
2721;DHT22;1368;49.484;11.112;2023-08-06T07:58:18;22.20;99.90
2721;DHT22;1368;49.484;11.112;2023-08-06T08:00:43;22.70;99.90
2721;DHT22;1368;49.484;11.112;2023-08-06T08:03:11;23.60;99.90
2721;DHT22;1368;49.484;11.112;2023-08-06T08:05:38;23.70;99.90
2721;DHT22;1368;49.484;11.112;2023-08-06T08:08:04;24.50;99.90
2721;DHT22;1368;49.484;11.112;2023-08-06T08:10:31;24.50;99.90
2721;DHT22;1368;49.484;11.112;2023-08-06T08:12:56;24.20;99.90
2721;DHT22;1368;49.484;11.112;2023-08-06T08:15:22;23.90;99.90
2721;DHT22;1368;49.484;11.112;2023-08-06T08:17:47;23.60;99.90
2721;DHT22;1368;49.484;11.112;2023-08-06T08:20:14;23.40;99.90
2721;DHT22;1368;49.484;11.112;2023-08-06T08:22:40;23.10;99.90
2721;DHT22;1368;49.484;11.112;2023-08-06T08:25:06;22.70;99.90
2721;DHT22;1368;49.484;11.112;2023-08-06T08:27:31;22.40;99.90
2721;DHT22;1368;49.484;11.112;2023-08-06T08:29:57;21.50;99.90
2721;DHT22;1368;49.484;11.112;2023-08-06T08:32:23;21.10;99.90
2721;DHT22;1368;49.484;11.112;2023-08-06T08:34:49;20.30;99.90
2721;DHT22;1368;49.484;11.112;2023-08-06T08:37:14;19.90;99.90
2721;DHT22;1368;49.484;11.112;2023-08-06T08:39:40;19.90;99.90
2721;DHT22;1368;49.484;11.112;2023-08-06T08:42:06;20.80;99.90
2721;DHT22;1368;49.484;11.112;2023-08-06T08:44:32;20.30;99.90
2721;DHT22;1368;49.484;11.112;2023-08-06T08:46:59;20.40;99.90
2721;DHT22;1368;49.484;11.112;2023-08-06T08:49:26;20.40;99.90
2721;DHT22;1368;49.484;11.112;2023-08-06T08:51:53;20.30;99.90
2721;DHT22;1368;49.484;11.112;2023-08-06T08:54:22;20.60;99.90
2721;DHT22;1368;49.484;11.112;2023-08-06T08:56:48;20.90;99.90
2721;DHT22;1368;49.484;11.112;2023-08-06T08:59:14;20.70;99.90
2721;DHT22;1368;49.484;11.112;2023-08-06T09:01:40;20.80;99.90
2721;DHT22;1368;49.484;11.112;2023-08-06T09:04:07;20.60;99.90
2721;DHT22;1368;49.484;11.112;2023-08-06T09:06:37;21.30;99.90
2721;DHT22;1368;49.484;11.112;2023-08-06T09:09:12;22.10;99.90
2721;DHT22;1368;49.484;11.112;2023-08-06T09:11:44;23.60;99.90
2721;DHT22;1368;49.484;11.112;2023-08-06T09:14:11;24.70;99.90
2721;DHT22;1368;49.484;11.112;2023-08-06T09:16:38;25.20;99.90
2721;DHT22;1368;49.484;11.112;2023-08-06T09:19:11;26.20;99.90
2721;DHT22;1368;49.484;11.112;2023-08-06T09:21:38;26.70;99.90
2721;DHT22;1368;49.484;11.112;2023-08-06T09:24:11;25.90;99.90
2721;DHT22;1368;49.484;11.112;2023-08-06T09:26:41;25.70;99.90
2721;DHT22;1368;49.484;11.112;2023-08-06T09:29:07;25.70;99.90
2721;DHT22;1368;49.484;11.112;2023-08-06T09:31:46;25.60;99.90
2721;DHT22;1368;49.484;11.112;2023-08-06T09:34:16;25.40;99.90
2721;DHT22;1368;49.484;11.112;2023-08-06T09:36:43;25.20;99.90
2721;DHT22;1368;49.484;11.112;2023-08-06T09:39:15;24.80;99.90
2721;DHT22;1368;49.484;11.112;2023-08-06T09:41:44;24.90;99.90
2721;DHT22;1368;49.484;11.112;2023-08-06T09:44:24;24.10;99.90
2721;DHT22;1368;49.484;11.112;2023-08-06T09:46:52;24.00;99.90
2721;DHT22;1368;49.484;11.112;2023-08-06T09:49:25;24.00;99.90
2721;DHT22;1368;49.484;11.112;2023-08-06T09:51:51;23.70;99.90
2721;DHT22;1368;49.484;11.112;2023-08-06T09:54:19;23.70;99.90
2721;DHT22;1368;49.484;11.112;2023-08-06T09:56:45;23.20;99.90
2721;DHT22;1368;49.484;11.112;2023-08-06T09:59:10;23.40;99.90
2721;DHT22;1368;49.484;11.112;2023-08-06T10:01:39;23.30;99.90
2721;DHT22;1368;49.484;11.112;2023-08-06T10:04:05;23.90;99.90
2721;DHT22;1368;49.484;11.112;2023-08-06T10:06:36;24.40;99.90
2721;DHT22;1368;49.484;11.112;2023-08-06T10:09:03;24.60;99.90
2721;DHT22;1368;49.484;11.112;2023-08-06T10:11:29;25.10;99.90
2721;DHT22;1368;49.484;11.112;2023-08-06T10:14:04;25.40;99.90
2721;DHT22;1368;49.484;11.112;2023-08-06T10:16:32;25.60;99.90
2721;DHT22;1368;49.484;11.112;2023-08-06T10:18:59;25.80;99.90
2721;DHT22;1368;49.484;11.112;2023-08-06T10:21:26;26.60;99.90
2721;DHT22;1368;49.484;11.112;2023-08-06T10:23:56;27.40;99.90
2721;DHT22;1368;49.484;11.112;2023-08-06T10:26:26;27.80;99.90
2721;DHT22;1368;49.484;11.112;2023-08-06T10:28:53;27.90;99.90
2721;DHT22;1368;49.484;11.112;2023-08-06T10:31:18;27.70;99.90
2721;DHT22;1368;49.484;11.112;2023-08-06T10:33:46;27.30;99.90
2721;DHT22;1368;49.484;11.112;2023-08-06T10:36:13;26.70;99.90
2721;DHT22;1368;49.484;11.112;2023-08-06T10:38:48;26.70;99.90
2721;DHT22;1368;49.484;11.112;2023-08-06T10:41:23;25.80;99.90
2721;DHT22;1368;49.484;11.112;2023-08-06T10:43:49;24.60;99.90
2721;DHT22;1368;49.484;11.112;2023-08-06T10:46:27;24.00;99.90
2721;DHT22;1368;49.484;11.112;2023-08-06T10:48:53;23.90;99.90
2721;DHT22;1368;49.484;11.112;2023-08-06T10:51:19;23.90;99.90
2721;DHT22;1368;49.484;11.112;2023-08-06T10:53:46;24.10;99.90
2721;DHT22;1368;49.484;11.112;2023-08-06T10:56:16;24.40;99.90
2721;DHT22;1368;49.484;11.112;2023-08-06T10:58:44;24.60;99.90
2721;DHT22;1368;49.484;11.112;2023-08-06T11:01:10;25.00;99.90
2721;DHT22;1368;49.484;11.112;2023-08-06T11:03:37;24.10;99.90
2721;DHT22;1368;49.484;11.112;2023-08-06T11:06:03;24.00;99.90
2721;DHT22;1368;49.484;11.112;2023-08-06T11:08:32;24.00;99.90
2721;DHT22;1368;49.484;11.112;2023-08-06T11:11:12;24.50;99.90
2721;DHT22;1368;49.484;11.112;2023-08-06T11:13:39;24.20;99.90
2721;DHT22;1368;49.484;11.112;2023-08-06T11:16:05;24.50;99.90
2721;DHT22;1368;49.484;11.112;2023-08-06T11:18:32;24.70;99.90
2721;DHT22;1368;49.484;11.112;2023-08-06T11:20:59;25.00;99.90
2721;DHT22;1368;49.484;11.112;2023-08-06T11:23:29;25.10;99.90
2721;DHT22;1368;49.484;11.112;2023-08-06T11:25:58;24.90;99.90
2721;DHT22;1368;49.484;11.112;2023-08-06T11:28:24;24.30;99.90
2721;DHT22;1368;49.484;11.112;2023-08-06T11:30:50;23.90;99.90
2721;DHT22;1368;49.484;11.112;2023-08-06T11:33:26;23.80;99.90
2721;DHT22;1368;49.484;11.112;2023-08-06T11:35:54;23.80;99.90
2721;DHT22;1368;49.484;11.112;2023-08-06T11:38:20;24.50;99.90
2721;DHT22;1368;49.484;11.112;2023-08-06T11:40:46;24.70;99.90
2721;DHT22;1368;49.484;11.112;2023-08-06T11:43:13;24.80;99.90
2721;DHT22;1368;49.484;11.112;2023-08-06T11:45:38;25.10;99.90
2721;DHT22;1368;49.484;11.112;2023-08-06T11:48:05;24.60;99.90
2721;DHT22;1368;49.484;11.112;2023-08-06T11:50:31;23.70;99.90
2721;DHT22;1368;49.484;11.112;2023-08-06T11:52:58;23.70;99.90
2721;DHT22;1368;49.484;11.112;2023-08-06T11:55:24;24.10;99.90
2721;DHT22;1368;49.484;11.112;2023-08-06T11:57:51;24.60;99.90
2721;DHT22;1368;49.484;11.112;2023-08-06T12:00:17;24.70;99.90
2721;DHT22;1368;49.484;11.112;2023-08-06T12:02:46;24.60;99.90
2721;DHT22;1368;49.484;11.112;2023-08-06T12:07:40;24.50;99.90
2721;DHT22;1368;49.484;11.112;2023-08-06T12:10:06;23.70;99.90
2721;DHT22;1368;49.484;11.112;2023-08-06T12:12:31;23.40;99.90
2721;DHT22;1368;49.484;11.112;2023-08-06T12:14:57;23.00;99.90
2721;DHT22;1368;49.484;11.112;2023-08-06T12:17:24;22.20;99.90
2721;DHT22;1368;49.484;11.112;2023-08-06T12:19:50;21.00;99.90
2721;DHT22;1368;49.484;11.112;2023-08-06T12:22:16;20.30;99.90
2721;DHT22;1368;49.484;11.112;2023-08-06T12:24:42;19.90;99.90
2721;DHT22;1368;49.484;11.112;2023-08-06T12:27:09;19.60;99.90
2721;DHT22;1368;49.484;11.112;2023-08-06T12:29:35;19.80;99.90
2721;DHT22;1368;49.484;11.112;2023-08-06T12:32:01;20.20;99.90
2721;DHT22;1368;49.484;11.112;2023-08-06T12:34:26;20.10;99.90
2721;DHT22;1368;49.484;11.112;2023-08-06T12:36:53;20.00;99.90
2721;DHT22;1368;49.484;11.112;2023-08-06T12:39:18;19.90;99.90
2721;DHT22;1368;49.484;11.112;2023-08-06T12:41:44;20.10;99.90
2721;DHT22;1368;49.484;11.112;2023-08-06T12:44:14;20.60;99.90
2721;DHT22;1368;49.484;11.112;2023-08-06T12:46:40;21.00;99.90
2721;DHT22;1368;49.484;11.112;2023-08-06T12:49:05;21.40;99.90
2721;DHT22;1368;49.484;11.112;2023-08-06T12:51:31;21.90;99.90
2721;DHT22;1368;49.484;11.112;2023-08-06T12:53:59;22.40;99.90
2721;DHT22;1368;49.484;11.112;2023-08-06T12:56:24;22.70;99.90
2721;DHT22;1368;49.484;11.112;2023-08-06T12:58:50;22.90;99.90
2721;DHT22;1368;49.484;11.112;2023-08-06T13:01:15;22.70;99.90
2721;DHT22;1368;49.484;11.112;2023-08-06T13:03:41;22.10;99.90
2721;DHT22;1368;49.484;11.112;2023-08-06T13:06:06;22.70;99.90
2721;DHT22;1368;49.484;11.112;2023-08-06T13:08:33;21.90;99.90
2721;DHT22;1368;49.484;11.112;2023-08-06T13:10:58;22.30;99.90
2721;DHT22;1368;49.484;11.112;2023-08-06T13:13:24;21.40;99.90
2721;DHT22;1368;49.484;11.112;2023-08-06T13:15:52;21.10;99.90
2721;DHT22;1368;49.484;11.112;2023-08-06T13:18:17;21.00;99.90
2721;DHT22;1368;49.484;11.112;2023-08-06T13:20:43;21.10;99.90
2721;DHT22;1368;49.484;11.112;2023-08-06T13:23:09;21.10;99.90
2721;DHT22;1368;49.484;11.112;2023-08-06T13:25:34;21.10;99.90
2721;DHT22;1368;49.484;11.112;2023-08-06T13:28:05;21.70;99.90
2721;DHT22;1368;49.484;11.112;2023-08-06T13:30:30;22.80;99.90
2721;DHT22;1368;49.484;11.112;2023-08-06T13:32:56;22.80;99.90
2721;DHT22;1368;49.484;11.112;2023-08-06T13:35:22;22.80;99.90
2721;DHT22;1368;49.484;11.112;2023-08-06T13:37:48;22.30;99.90
2721;DHT22;1368;49.484;11.112;2023-08-06T13:40:14;22.10;99.90
2721;DHT22;1368;49.484;11.112;2023-08-06T13:42:40;22.00;99.90
2721;DHT22;1368;49.484;11.112;2023-08-06T13:45:06;21.70;99.90
2721;DHT22;1368;49.484;11.112;2023-08-06T13:47:32;21.10;99.90
2721;DHT22;1368;49.484;11.112;2023-08-06T13:49:57;21.00;99.90
2721;DHT22;1368;49.484;11.112;2023-08-06T13:52:24;20.30;99.90
2721;DHT22;1368;49.484;11.112;2023-08-06T13:54:50;20.30;99.90
2721;DHT22;1368;49.484;11.112;2023-08-06T13:57:16;20.40;99.90
2721;DHT22;1368;49.484;11.112;2023-08-06T13:59:42;20.40;99.90
2721;DHT22;1368;49.484;11.112;2023-08-06T14:02:09;20.20;99.90
2721;DHT22;1368;49.484;11.112;2023-08-06T14:04:34;19.90;99.90
2721;DHT22;1368;49.484;11.112;2023-08-06T14:07:00;19.50;99.90
2721;DHT22;1368;49.484;11.112;2023-08-06T14:09:26;19.30;99.90
2721;DHT22;1368;49.484;11.112;2023-08-06T14:11:51;19.60;99.90
2721;DHT22;1368;49.484;11.112;2023-08-06T14:14:17;20.00;99.90
2721;DHT22;1368;49.484;11.112;2023-08-06T14:16:42;19.30;99.90
2721;DHT22;1368;49.484;11.112;2023-08-06T14:19:08;18.70;99.90
2721;DHT22;1368;49.484;11.112;2023-08-06T14:21:33;18.80;99.90
2721;DHT22;1368;49.484;11.112;2023-08-06T14:23:59;18.20;99.90
2721;DHT22;1368;49.484;11.112;2023-08-06T14:26:24;17.90;99.90
2721;DHT22;1368;49.484;11.112;2023-08-06T14:28:50;17.80;99.90
2721;DHT22;1368;49.484;11.112;2023-08-06T14:31:19;17.60;99.90
2721;DHT22;1368;49.484;11.112;2023-08-06T14:33:45;17.60;99.90
2721;DHT22;1368;49.484;11.112;2023-08-06T14:36:11;17.50;99.90
2721;DHT22;1368;49.484;11.112;2023-08-06T14:38:36;17.60;99.90
2721;DHT22;1368;49.484;11.112;2023-08-06T14:41:02;17.30;99.90
2721;DHT22;1368;49.484;11.112;2023-08-06T14:43:28;17.70;99.90
2721;DHT22;1368;49.484;11.112;2023-08-06T14:45:53;17.20;99.90
2721;DHT22;1368;49.484;11.112;2023-08-06T14:48:19;17.50;99.90
2721;DHT22;1368;49.484;11.112;2023-08-06T14:50:44;17.40;99.90
2721;DHT22;1368;49.484;11.112;2023-08-06T14:53:10;17.30;99.90
2721;DHT22;1368;49.484;11.112;2023-08-06T14:55:37;17.30;99.90
2721;DHT22;1368;49.484;11.112;2023-08-06T14:58:02;17.10;99.90
2721;DHT22;1368;49.484;11.112;2023-08-06T15:00:28;16.80;99.90
2721;DHT22;1368;49.484;11.112;2023-08-06T15:02:53;16.70;99.90
2721;DHT22;1368;49.484;11.112;2023-08-06T15:05:19;16.50;99.90
2721;DHT22;1368;49.484;11.112;2023-08-06T15:07:44;16.50;99.90
2721;DHT22;1368;49.484;11.112;2023-08-06T15:10:10;16.50;99.90
2721;DHT22;1368;49.484;11.112;2023-08-06T15:12:36;16.50;99.90
2721;DHT22;1368;49.484;11.112;2023-08-06T15:15:01;16.50;99.90
2721;DHT22;1368;49.484;11.112;2023-08-06T15:17:27;16.70;99.90
2721;DHT22;1368;49.484;11.112;2023-08-06T15:19:56;16.80;99.90
2721;DHT22;1368;49.484;11.112;2023-08-06T15:22:22;17.50;99.90
2721;DHT22;1368;49.484;11.112;2023-08-06T15:24:48;17.00;99.90
2721;DHT22;1368;49.484;11.112;2023-08-06T15:27:13;17.20;99.90
2721;DHT22;1368;49.484;11.112;2023-08-06T15:29:39;17.10;99.90
2721;DHT22;1368;49.484;11.112;2023-08-06T15:32:05;17.20;99.90
2721;DHT22;1368;49.484;11.112;2023-08-06T15:34:31;17.20;99.90
2721;DHT22;1368;49.484;11.112;2023-08-06T15:36:56;17.30;99.90
2721;DHT22;1368;49.484;11.112;2023-08-06T15:39:22;17.20;99.90
2721;DHT22;1368;49.484;11.112;2023-08-06T15:41:47;17.70;99.90
2721;DHT22;1368;49.484;11.112;2023-08-06T15:44:13;17.30;99.90
2721;DHT22;1368;49.484;11.112;2023-08-06T15:46:38;17.70;99.90
2721;DHT22;1368;49.484;11.112;2023-08-06T15:49:04;17.20;99.90
2721;DHT22;1368;49.484;11.112;2023-08-06T15:51:30;17.50;99.90
2721;DHT22;1368;49.484;11.112;2023-08-06T15:53:56;17.30;99.90